createdAt,value
2018-05-05T00:02:07.831Z,0.60
2018-05-05T00:04:36.123Z,0.60
2018-05-05T00:07:04.369Z,0.60
2018-05-05T00:09:32.651Z,0.57
2018-05-05T00:12:00.962Z,0.60
2018-05-05T00:14:29.193Z,0.60
2018-05-05T00:16:57.484Z,0.60
2018-05-05T00:19:25.782Z,0.60
2018-05-05T00:21:54.022Z,0.60
2018-05-05T00:24:22.328Z,0.60
2018-05-05T00:26:50.555Z,0.60
2018-05-05T00:29:19.573Z,0.60
2018-05-05T00:31:47.822Z,0.60
2018-05-05T00:34:16.079Z,0.60
2018-05-05T00:36:44.366Z,0.60
2018-05-05T00:39:12.616Z,0.60
2018-05-05T00:41:40.879Z,0.60
2018-05-05T00:44:09.135Z,0.60
2018-05-05T00:46:37.379Z,0.60
2018-05-05T00:49:05.679Z,0.60
2018-05-05T00:51:34.727Z,0.60
2018-05-05T00:57:06.627Z,0.60
2018-05-05T00:59:34.893Z,0.60
2018-05-05T01:02:03.143Z,0.60
2018-05-05T01:04:31.428Z,0.60
2018-05-05T01:06:59.688Z,0.60
2018-05-05T01:09:27.930Z,0.60
2018-05-05T01:11:56.990Z,0.60
2018-05-05T01:14:25.277Z,0.60
2018-05-05T01:16:53.547Z,0.60
2018-05-05T01:19:21.790Z,0.60
2018-05-05T01:21:50.039Z,0.60
2018-05-05T01:24:19.056Z,0.60
2018-05-05T01:26:47.361Z,0.50
2018-05-05T01:29:15.645Z,0.60
2018-05-05T01:31:43.886Z,0.60
2018-05-05T01:34:12.443Z,0.60
2018-05-05T01:36:40.724Z,0.60
2018-05-05T01:39:09.736Z,0.60
2018-05-05T01:41:38.038Z,0.60
2018-05-05T01:44:06.334Z,0.60
2018-05-05T01:46:34.614Z,0.60
2018-05-05T01:49:02.866Z,0.60
2018-05-05T01:51:31.147Z,0.60
2018-05-05T01:53:59.404Z,0.60
2018-05-05T01:56:27.643Z,0.60
2018-05-05T01:58:55.895Z,0.60
2018-05-05T02:01:24.146Z,0.60
2018-05-05T02:03:52.423Z,0.60
2018-05-05T02:06:20.662Z,0.60
2018-05-05T02:08:49.742Z,0.60
2018-05-05T02:11:17.998Z,0.60
2018-05-05T02:13:46.245Z,0.60
2018-05-05T02:16:14.543Z,0.60
2018-05-05T02:18:42.778Z,0.60
2018-05-05T02:21:11.084Z,0.60
2018-05-05T02:23:39.318Z,0.60
2018-05-05T02:26:08.443Z,0.60
2018-05-05T02:28:36.627Z,0.60
2018-05-05T02:31:04.957Z,0.60
2018-05-05T02:33:33.247Z,0.60
2018-05-05T02:36:02.321Z,0.60
2018-05-05T02:38:30.605Z,0.60
2018-05-05T02:40:58.918Z,0.60
2018-05-05T02:43:28.771Z,0.60
2018-05-05T02:45:57.008Z,0.60
2018-05-05T02:48:25.320Z,0.60
2018-05-05T02:50:53.556Z,0.60
2018-05-05T02:53:22.492Z,0.60
2018-05-05T02:55:50.782Z,0.60
2018-05-05T02:58:19.099Z,0.60
2018-05-05T03:00:48.099Z,0.70
2018-05-05T03:03:17.158Z,0.60
2018-05-05T03:05:45.429Z,0.63
2018-05-05T03:08:13.680Z,0.60
2018-05-05T03:10:41.970Z,0.70
2018-05-05T03:13:10.235Z,0.60
2018-05-05T03:15:38.520Z,0.60
2018-05-05T03:18:06.814Z,0.60
2018-05-05T03:20:35.066Z,0.60
2018-05-05T03:23:03.358Z,0.60
2018-05-05T03:25:31.614Z,0.60
2018-05-05T03:27:59.856Z,0.60
2018-05-05T03:30:28.892Z,0.70
2018-05-05T03:32:57.123Z,0.60
2018-05-05T03:35:26.186Z,0.60
2018-05-05T03:37:54.482Z,0.60
2018-05-05T03:40:22.766Z,0.60
2018-05-05T03:42:51.052Z,0.60
2018-05-05T03:45:19.301Z,0.70
2018-05-05T03:47:47.591Z,0.60
2018-05-05T03:50:15.839Z,0.60
2018-05-05T03:52:44.087Z,0.70
2018-05-05T03:55:12.325Z,0.60
2018-05-05T03:57:40.571Z,0.60
2018-05-05T04:00:20.813Z,0.60
2018-05-05T04:03:00.835Z,0.60
2018-05-05T04:08:25.458Z,0.60
2018-05-05T04:10:53.746Z,0.70
2018-05-05T04:13:21.975Z,0.70
2018-05-05T04:15:50.294Z,0.60
2018-05-05T04:18:18.527Z,0.60
2018-05-05T04:20:46.778Z,0.60
2018-05-05T04:23:15.067Z,0.60
2018-05-05T04:25:43.308Z,0.60
2018-05-05T04:28:11.621Z,0.57
2018-05-05T04:30:39.855Z,0.60
2018-05-05T04:33:08.136Z,0.60
2018-05-05T04:35:36.387Z,0.60
2018-05-05T04:38:05.458Z,0.60
2018-05-05T04:40:33.699Z,0.60
2018-05-05T04:43:02.003Z,0.60
2018-05-05T04:45:30.282Z,0.60
2018-05-05T04:47:58.574Z,0.60
2018-05-05T04:50:26.854Z,0.70
2018-05-05T04:52:55.130Z,0.60
2018-05-05T04:55:23.432Z,0.60
2018-05-05T04:57:51.696Z,0.60
2018-05-05T05:00:20.774Z,0.60
2018-05-05T05:02:49.035Z,0.60
2018-05-05T05:05:17.325Z,0.60
2018-05-05T05:07:45.601Z,0.60
2018-05-05T05:10:13.903Z,0.60
2018-05-05T05:12:42.954Z,0.60
2018-05-05T05:15:11.210Z,0.60
2018-05-05T05:17:39.502Z,0.60
2018-05-05T05:20:07.784Z,0.60
2018-05-05T05:22:36.073Z,0.60
2018-05-05T05:25:04.366Z,0.60
2018-05-05T05:27:32.643Z,0.60
2018-05-05T05:30:00.918Z,0.60
2018-05-05T05:32:29.203Z,0.70
2018-05-05T05:34:57.483Z,0.60
2018-05-05T05:37:25.770Z,0.60
2018-05-05T05:39:54.792Z,0.60
2018-05-05T05:42:23.037Z,0.60
2018-05-05T05:44:52.097Z,0.60
2018-05-05T05:47:20.334Z,0.70
2018-05-05T05:49:48.589Z,0.70
2018-05-05T05:52:17.691Z,0.53
2018-05-05T05:54:45.915Z,0.60
2018-05-05T05:57:14.159Z,0.60
2018-05-05T05:59:42.409Z,0.60
2018-05-05T06:02:11.433Z,0.60
2018-05-05T06:04:39.680Z,0.60
2018-05-05T06:07:08.741Z,0.60
2018-05-05T06:09:37.804Z,0.60
2018-05-05T06:12:06.040Z,0.60
2018-05-05T06:14:34.304Z,0.60
2018-05-05T06:17:02.582Z,0.60
2018-05-05T06:19:30.910Z,0.60
2018-05-05T06:21:59.157Z,0.60
2018-05-05T06:24:28.218Z,0.60
2018-05-05T06:26:56.445Z,0.60
2018-05-05T06:29:25.526Z,0.60
2018-05-05T06:31:54.547Z,0.60
2018-05-05T06:34:22.845Z,0.53
2018-05-05T06:36:51.245Z,0.50
2018-05-05T06:39:19.549Z,0.50
2018-05-05T06:41:48.584Z,0.60
2018-05-05T06:44:16.829Z,0.60
2018-05-05T06:46:46.405Z,0.50
2018-05-05T06:49:15.222Z,0.60
2018-05-05T06:51:43.519Z,0.60
2018-05-05T06:54:12.570Z,0.60
2018-05-05T06:56:40.816Z,0.50
2018-05-05T06:59:09.077Z,0.50
2018-05-05T07:01:37.322Z,0.50
2018-05-05T07:04:05.577Z,0.50
2018-05-05T07:06:33.860Z,0.50
2018-05-05T07:09:02.158Z,0.60
2018-05-05T07:11:30.442Z,0.50
2018-05-05T07:13:59.497Z,0.60
2018-05-05T07:16:27.782Z,0.60
2018-05-05T07:18:56.069Z,0.60
2018-05-05T07:21:24.319Z,0.60
2018-05-05T07:23:52.595Z,0.60
2018-05-05T07:26:20.848Z,0.60
2018-05-05T07:28:49.097Z,0.60
2018-05-05T07:31:18.177Z,0.60
2018-05-05T07:33:46.460Z,0.60
2018-05-05T07:36:14.714Z,0.60
2018-05-05T07:38:43.007Z,0.60
2018-05-05T07:41:11.312Z,0.60
2018-05-05T07:43:40.351Z,0.50
2018-05-05T07:46:08.638Z,0.60
2018-05-05T07:48:36.920Z,0.50
2018-05-05T07:51:05.218Z,0.60
2018-05-05T07:53:33.818Z,0.50
2018-05-05T07:56:02.067Z,0.50
2018-05-05T07:58:30.332Z,0.50
2018-05-05T08:00:58.638Z,0.50
2018-05-05T08:03:26.898Z,0.50
2018-05-05T08:05:55.150Z,0.50
2018-05-05T08:08:23.473Z,0.50
2018-05-05T08:10:51.717Z,0.50
2018-05-05T08:13:20.003Z,0.50
2018-05-05T08:15:48.268Z,0.60
2018-05-05T08:18:16.568Z,0.50
2018-05-05T08:20:44.828Z,0.53
2018-05-05T08:23:13.121Z,0.50
2018-05-05T08:25:41.410Z,0.60
2018-05-05T08:28:09.699Z,0.50
2018-05-05T08:30:38.729Z,0.50
2018-05-05T08:33:06.995Z,0.50
2018-05-05T08:35:35.233Z,0.40
2018-05-05T08:38:03.493Z,0.50
2018-05-05T08:40:31.773Z,0.50
2018-05-05T08:43:00.056Z,0.50
2018-05-05T08:45:28.339Z,0.50
2018-05-05T08:47:56.665Z,0.50
2018-05-05T08:50:24.947Z,0.50
2018-05-05T08:52:53.252Z,0.50
2018-05-05T08:55:21.594Z,0.50
2018-05-05T08:57:49.832Z,0.50
2018-05-05T09:00:18.149Z,0.50
2018-05-05T09:02:46.383Z,0.57
2018-05-05T09:05:14.647Z,0.50
2018-05-05T09:07:42.924Z,0.50
2018-05-05T09:10:11.191Z,0.50
2018-05-05T09:12:39.442Z,0.50
2018-05-05T09:15:07.738Z,0.50
2018-05-05T09:17:35.980Z,0.50
2018-05-05T09:20:04.285Z,0.50
2018-05-05T09:22:32.527Z,0.50
2018-05-05T09:25:01.561Z,0.50
2018-05-05T09:27:29.837Z,0.50
2018-05-05T09:29:58.107Z,0.50
2018-05-05T09:32:26.398Z,0.50
2018-05-05T09:34:54.682Z,0.50
2018-05-05T09:37:22.936Z,0.60
2018-05-05T09:39:51.219Z,0.50
2018-05-05T09:42:19.529Z,0.50
2018-05-05T09:44:47.795Z,0.50
2018-05-05T09:47:16.047Z,0.50
2018-05-05T09:49:44.332Z,0.50
2018-05-05T09:52:12.598Z,0.40
2018-05-05T09:54:40.890Z,0.40
2018-05-05T09:57:09.210Z,0.40
2018-05-05T09:59:37.485Z,0.50
2018-05-05T10:02:05.731Z,0.50
2018-05-05T10:04:33.996Z,0.50
2018-05-05T10:07:02.287Z,0.40
2018-05-05T10:09:30.597Z,0.50
2018-05-05T10:11:58.851Z,0.50
2018-05-05T10:14:27.151Z,0.50
2018-05-05T10:16:56.196Z,0.50
2018-05-05T10:19:24.507Z,0.40
2018-05-05T10:21:52.740Z,0.50
2018-05-05T10:24:21.034Z,0.50
2018-05-05T10:26:49.276Z,0.43
2018-05-05T10:29:17.596Z,0.50
2018-05-05T10:31:45.928Z,0.40
2018-05-05T10:34:14.099Z,0.40
2018-05-05T10:36:43.155Z,0.40
2018-05-05T10:39:11.499Z,0.40
2018-05-05T10:41:39.728Z,0.40
2018-05-05T10:44:08.771Z,0.40
2018-05-05T10:46:37.068Z,0.40
2018-05-05T10:49:05.369Z,0.43
2018-05-05T10:51:33.671Z,0.40
2018-05-05T10:54:02.671Z,0.40
2018-05-05T10:56:30.950Z,0.40
2018-05-05T10:58:59.969Z,0.40
2018-05-05T11:01:28.303Z,0.50
2018-05-05T11:03:56.513Z,0.30
2018-05-05T11:06:24.763Z,0.30
2018-05-05T11:08:53.840Z,0.40
2018-05-05T11:11:22.146Z,0.40
2018-05-05T11:13:51.179Z,0.40
2018-05-05T11:16:19.502Z,0.40
2018-05-05T11:18:47.747Z,0.43
2018-05-05T11:21:15.998Z,0.43
2018-05-05T11:23:44.337Z,0.40
2018-05-05T11:26:12.620Z,0.30
2018-05-05T11:28:41.683Z,0.30
2018-05-05T11:31:09.970Z,0.40
2018-05-05T11:33:38.271Z,0.37
2018-05-05T11:36:07.324Z,0.40
2018-05-05T11:38:35.625Z,0.40
2018-05-05T11:41:03.885Z,0.30
2018-05-05T11:43:32.183Z,0.30
2018-05-05T11:46:00.418Z,0.40
2018-05-05T11:48:28.714Z,0.37
2018-05-05T11:50:56.966Z,0.30
2018-05-05T11:53:25.256Z,0.30
2018-05-05T11:55:53.512Z,0.30
2018-05-05T11:58:21.757Z,0.40
2018-05-05T12:00:50.794Z,0.37
2018-05-05T12:03:19.071Z,0.40
2018-05-05T12:05:47.376Z,0.30
2018-05-05T12:08:15.616Z,0.40
2018-05-05T12:10:43.974Z,0.40
2018-05-05T12:13:12.155Z,0.40
2018-05-05T12:15:41.184Z,0.37
2018-05-05T12:18:09.480Z,0.40
2018-05-05T12:20:37.719Z,0.40
2018-05-05T12:23:06.042Z,0.30
2018-05-05T12:25:34.316Z,0.40
2018-05-05T12:28:02.619Z,0.30
2018-05-05T12:30:31.630Z,0.30
2018-05-05T12:32:59.962Z,0.30
2018-05-05T12:35:28.250Z,0.40
2018-05-05T12:37:56.566Z,0.30
2018-05-05T12:40:25.562Z,0.40
2018-05-05T12:42:53.823Z,0.40
2018-05-05T12:45:22.846Z,0.30
2018-05-05T12:47:51.151Z,0.40
2018-05-05T12:50:20.215Z,0.40
2018-05-05T12:52:48.460Z,0.40
2018-05-05T12:55:16.725Z,0.40
2018-05-05T12:57:44.994Z,0.40
2018-05-05T13:00:13.266Z,0.40
2018-05-05T13:02:41.545Z,0.40
2018-05-05T13:05:09.800Z,0.40
2018-05-05T13:07:38.038Z,0.40
2018-05-05T13:10:06.309Z,0.40
2018-05-05T13:12:35.326Z,0.40
2018-05-05T13:15:03.607Z,0.40
2018-05-05T13:17:31.894Z,0.40
2018-05-05T13:20:00.141Z,0.37
2018-05-05T13:22:29.158Z,0.40
2018-05-05T13:24:58.167Z,0.40
2018-05-05T13:27:26.428Z,0.40
2018-05-05T13:29:54.716Z,0.40
2018-05-05T13:32:22.971Z,0.40
2018-05-05T13:34:51.219Z,0.40
2018-05-05T13:37:20.247Z,0.40
2018-05-05T13:39:48.487Z,0.50
2018-05-05T13:42:17.574Z,0.35
2018-05-05T13:44:45.817Z,0.40
2018-05-05T13:47:14.059Z,0.40
2018-05-05T13:49:42.344Z,0.40
2018-05-05T13:52:10.636Z,0.40
2018-05-05T13:54:38.899Z,0.40
2018-05-05T13:57:07.182Z,0.40
2018-05-05T13:59:35.476Z,0.40
2018-05-05T14:02:03.769Z,0.40
2018-05-05T14:04:32.065Z,0.40
2018-05-05T14:07:00.351Z,0.32
2018-05-05T14:09:28.646Z,0.40
2018-05-05T14:11:57.723Z,0.40
2018-05-05T14:14:26.034Z,0.40
2018-05-05T14:16:54.316Z,0.40
2018-05-05T14:19:22.570Z,0.40
2018-05-05T14:21:50.827Z,0.50
2018-05-05T14:24:19.087Z,0.40
2018-05-05T14:26:47.374Z,0.35
2018-05-05T14:29:15.658Z,0.40
2018-05-05T14:31:43.968Z,0.47
2018-05-05T14:34:13.037Z,0.40
2018-05-05T14:36:41.291Z,0.40
2018-05-05T14:39:09.553Z,0.40
2018-05-05T14:41:37.835Z,0.40
2018-05-05T14:44:06.077Z,0.40
2018-05-05T14:46:34.370Z,0.40
2018-05-05T14:49:02.641Z,0.47
2018-05-05T14:51:30.900Z,0.40
2018-05-05T14:53:59.168Z,0.40
2018-05-05T14:56:28.185Z,0.40
2018-05-05T14:58:56.507Z,0.40
2018-05-05T15:01:25.493Z,0.40
2018-05-05T15:03:53.799Z,0.40
2018-05-05T15:06:22.029Z,0.40
2018-05-05T15:08:50.335Z,0.45
2018-05-05T15:11:18.577Z,0.43
2018-05-05T15:13:46.837Z,0.40
2018-05-05T15:16:15.092Z,0.45
2018-05-05T15:18:44.153Z,0.50
2018-05-05T15:21:12.452Z,0.40
2018-05-05T15:23:40.691Z,0.40
2018-05-05T15:26:08.961Z,0.40
2018-05-05T15:28:37.200Z,0.40
2018-05-05T15:31:06.356Z,0.40
2018-05-05T15:33:35.350Z,0.35
2018-05-05T15:36:04.383Z,0.32
2018-05-05T15:38:33.447Z,0.40
2018-05-05T15:41:01.687Z,0.40
2018-05-05T15:43:29.993Z,0.40
2018-05-05T15:45:58.294Z,0.40
2018-05-05T15:48:26.552Z,0.40
2018-05-05T15:50:55.130Z,0.40
2018-05-05T15:53:23.368Z,0.40
2018-05-05T15:55:51.674Z,0.40
2018-05-05T15:58:19.923Z,0.40
2018-05-05T16:00:48.180Z,0.40
2018-05-05T16:03:17.209Z,0.40
2018-05-05T16:05:45.452Z,0.40
2018-05-05T16:08:14.530Z,0.40
2018-05-05T16:10:42.766Z,0.40
2018-05-05T16:13:11.074Z,0.40
2018-05-05T16:15:39.320Z,0.37
2018-05-05T16:18:07.580Z,0.30
2018-05-05T16:20:35.826Z,0.30
2018-05-05T16:23:04.845Z,0.30
2018-05-05T16:25:33.140Z,0.30
2018-05-05T16:28:01.371Z,0.30
2018-05-05T16:30:30.437Z,0.30
2018-05-05T16:32:58.729Z,0.30
2018-05-05T16:35:26.989Z,0.30
2018-05-05T16:37:55.248Z,0.30
2018-05-05T16:40:23.509Z,0.30
2018-05-05T16:42:51.782Z,0.40
2018-05-05T16:45:20.074Z,0.35
2018-05-05T16:47:48.304Z,0.40
2018-05-05T16:50:16.575Z,0.40
2018-05-05T16:52:44.871Z,0.40
2018-05-05T16:55:13.117Z,0.30
2018-05-05T16:57:41.408Z,0.40
2018-05-05T17:00:09.728Z,0.40
2018-05-05T17:02:38.004Z,0.43
2018-05-05T17:05:06.285Z,0.30
2018-05-05T17:07:34.584Z,0.40
2018-05-05T17:10:02.873Z,0.40
2018-05-05T17:12:31.127Z,0.40
2018-05-05T17:14:59.366Z,0.40
2018-05-05T17:17:28.429Z,0.40
2018-05-05T17:19:56.672Z,0.40
2018-05-05T17:22:24.975Z,0.40
2018-05-05T17:24:53.206Z,0.40
2018-05-05T17:27:21.481Z,0.40
2018-05-05T17:29:49.731Z,0.40
2018-05-05T17:32:18.039Z,0.40
2018-05-05T17:34:47.082Z,0.30
2018-05-05T17:37:15.330Z,0.30
2018-05-05T17:39:43.626Z,0.30
2018-05-05T17:42:11.911Z,0.40
2018-05-05T17:44:40.203Z,0.33
2018-05-05T17:47:08.482Z,0.43
2018-05-05T17:49:36.778Z,0.30
2018-05-05T17:52:05.020Z,0.30
2018-05-05T17:54:34.107Z,0.30
2018-05-05T17:57:02.444Z,0.40
2018-05-05T17:59:30.661Z,0.40
2018-05-05T18:01:58.953Z,0.40
2018-05-05T18:04:27.249Z,0.40
2018-05-05T18:06:55.550Z,0.37
2018-05-05T18:09:24.669Z,0.40
2018-05-05T18:11:52.969Z,0.40
2018-05-05T18:14:21.229Z,0.40
2018-05-05T18:16:49.596Z,0.40
2018-05-05T18:19:17.787Z,0.40
2018-05-05T18:21:46.163Z,0.40
2018-05-05T18:24:14.345Z,0.40
2018-05-05T18:26:42.603Z,0.30
2018-05-05T18:29:10.888Z,0.40
2018-05-05T18:31:39.210Z,0.40
2018-05-05T18:34:07.451Z,0.40
2018-05-05T18:36:35.712Z,0.40
2018-05-05T18:39:04.031Z,0.40
2018-05-05T18:41:32.307Z,0.30
2018-05-05T18:44:00.547Z,0.40
2018-05-05T18:46:28.788Z,0.30
2018-05-05T18:48:57.862Z,0.40
2018-05-05T18:51:26.112Z,0.40
2018-05-05T18:53:54.383Z,0.40
2018-05-05T18:56:22.620Z,0.50
2018-05-05T18:58:51.707Z,0.40
2018-05-05T19:01:20.735Z,0.40
2018-05-05T19:03:49.107Z,0.50
2018-05-05T19:06:18.185Z,0.40
2018-05-05T19:08:46.417Z,0.40
2018-05-05T19:11:14.711Z,0.40
2018-05-05T19:13:42.979Z,0.40
2018-05-05T19:16:11.354Z,0.40
2018-05-05T19:18:39.545Z,0.40
2018-05-05T19:21:07.902Z,0.40
2018-05-05T19:23:36.289Z,0.40
2018-05-05T19:26:04.587Z,0.40
2018-05-05T19:28:32.827Z,0.40
2018-05-05T19:31:01.122Z,0.50
2018-05-05T19:33:29.377Z,0.50
2018-05-05T19:35:57.644Z,0.40
2018-05-05T19:38:25.903Z,0.40
2018-05-05T19:40:55.269Z,0.40
2018-05-05T19:43:23.571Z,0.50
2018-05-05T19:45:52.648Z,0.50
2018-05-05T19:48:20.919Z,0.40
2018-05-05T19:50:49.163Z,0.50
2018-05-05T19:53:17.421Z,0.40
2018-05-05T19:55:45.687Z,0.50
2018-05-05T19:58:14.761Z,0.40
2018-05-05T20:00:43.055Z,0.40
2018-05-05T20:03:11.289Z,0.50
2018-05-05T20:05:39.538Z,0.50
2018-05-05T20:08:07.857Z,0.50
2018-05-05T20:10:36.111Z,0.40
2018-05-05T20:13:04.359Z,0.50
2018-05-05T20:15:32.616Z,0.50
2018-05-05T20:18:01.687Z,0.43
2018-05-05T20:20:29.991Z,0.40
2018-05-05T20:22:59.027Z,0.50
2018-05-05T20:25:27.334Z,0.50
2018-05-05T20:27:55.610Z,0.40
2018-05-05T20:30:23.857Z,0.40
2018-05-05T20:32:52.151Z,0.50
2018-05-05T20:35:20.539Z,0.50
2018-05-05T20:37:48.819Z,0.50
2018-05-05T20:40:17.119Z,0.50
2018-05-05T20:42:45.402Z,0.50
2018-05-05T20:45:13.678Z,0.47
2018-05-05T20:47:41.982Z,0.40
2018-05-05T20:50:10.983Z,0.47
2018-05-05T20:52:39.294Z,0.50
2018-05-05T20:55:07.539Z,0.50
2018-05-05T20:57:35.839Z,0.50
2018-05-05T21:00:04.116Z,0.50
2018-05-05T21:02:33.211Z,0.50
2018-05-05T21:05:01.498Z,0.50
2018-05-05T21:07:30.580Z,0.50
2018-05-05T21:09:58.851Z,0.50
2018-05-05T21:12:27.100Z,0.50
2018-05-05T21:14:55.354Z,0.50
2018-05-05T21:17:23.668Z,0.50
2018-05-05T21:19:51.912Z,0.60
2018-05-05T21:22:20.971Z,0.50
2018-05-05T21:24:49.225Z,0.57
2018-05-05T21:27:17.467Z,0.60
2018-05-05T21:29:46.583Z,0.50
2018-05-05T21:32:14.838Z,0.53
2018-05-05T21:34:43.896Z,0.50
2018-05-05T21:37:12.175Z,0.60
2018-05-05T21:39:40.417Z,0.53
2018-05-05T21:42:08.695Z,0.50
2018-05-05T21:44:37.027Z,0.60
2018-05-05T21:47:05.264Z,0.53
2018-05-05T21:49:33.539Z,0.50
2018-05-05T21:52:01.879Z,0.60
2018-05-05T21:54:30.891Z,0.53
2018-05-05T21:56:59.173Z,0.50
2018-05-05T21:59:27.427Z,0.57
2018-05-05T22:01:56.514Z,0.50
2018-05-05T22:04:24.795Z,0.50
2018-05-05T22:06:53.115Z,0.50
2018-05-05T22:09:21.279Z,0.50
2018-05-05T22:11:49.581Z,0.60
2018-05-05T22:14:17.870Z,0.50
2018-05-05T22:16:46.138Z,0.50
2018-05-05T22:19:14.390Z,0.60
2018-05-05T22:21:42.651Z,0.60
2018-05-05T22:24:10.905Z,0.60
2018-05-05T22:26:39.979Z,0.60
2018-05-05T22:29:08.263Z,0.57
2018-05-05T22:31:36.753Z,0.60
2018-05-05T22:34:06.536Z,0.60
2018-05-05T22:36:34.828Z,0.60
2018-05-05T22:39:03.068Z,0.60
2018-05-05T22:41:31.435Z,0.60
2018-05-05T22:43:59.674Z,0.60
2018-05-05T22:46:27.927Z,0.60
2018-05-05T22:48:56.187Z,0.50
2018-05-05T22:51:24.476Z,0.60
2018-05-05T22:53:52.783Z,0.60
2018-05-05T22:56:21.068Z,0.60
2018-05-05T22:58:49.370Z,0.53
2018-05-05T23:01:17.652Z,0.60
2018-05-05T23:03:45.905Z,0.53
2018-05-05T23:06:14.920Z,0.60
2018-05-05T23:08:43.216Z,0.57
2018-05-05T23:11:11.500Z,0.60
2018-05-05T23:13:39.796Z,0.50
2018-05-05T23:16:08.070Z,0.50
2018-05-05T23:18:36.316Z,0.50
2018-05-05T23:21:04.609Z,0.50
2018-05-05T23:23:32.840Z,0.60
2018-05-05T23:26:02.747Z,0.60
2018-05-05T23:28:31.764Z,0.60
2018-05-05T23:31:00.828Z,0.60
2018-05-05T23:33:29.089Z,0.60
2018-05-05T23:35:57.395Z,0.50
2018-05-05T23:38:25.635Z,0.60
2018-05-05T23:40:53.942Z,0.53
2018-05-05T23:43:22.191Z,0.60
2018-05-05T23:45:50.771Z,0.60
2018-05-05T23:48:18.997Z,0.60
2018-05-05T23:50:48.020Z,0.60
2018-05-05T23:53:16.256Z,0.60
2018-05-05T23:55:45.319Z,0.60
2018-05-05T23:58:13.609Z,0.60
